sensor_id;sensor_type;location;lat;lon;timestamp;P1;durP1;ratioP1;P2;durP2;ratioP2
72060;SDS011;59925;52.136;5.420;2024-01-30T00:00:44;12.23;;;7.88;;
72060;SDS011;59925;52.136;5.420;2024-01-30T00:03:11;14.65;;;7.57;;
72060;SDS011;59925;52.136;5.420;2024-01-30T00:05:37;15.75;;;8.27;;
72060;SDS011;59925;52.136;5.420;2024-01-30T00:08:04;14.27;;;8.18;;
72060;SDS011;59925;52.136;5.420;2024-01-30T00:10:31;16.53;;;8.33;;
72060;SDS011;59925;52.136;5.420;2024-01-30T00:12:58;15.05;;;8.40;;
72060;SDS011;59925;52.136;5.420;2024-01-30T00:15:24;13.68;;;8.25;;
72060;SDS011;59925;52.136;5.420;2024-01-30T00:17:51;14.88;;;7.82;;
72060;SDS011;59925;52.136;5.420;2024-01-30T00:20:20;15.23;;;7.82;;
72060;SDS011;59925;52.136;5.420;2024-01-30T00:22:47;15.40;;;8.30;;
72060;SDS011;59925;52.136;5.420;2024-01-30T00:25:13;14.77;;;8.82;;
72060;SDS011;59925;52.136;5.420;2024-01-30T00:27:40;14.93;;;8.68;;
72060;SDS011;59925;52.136;5.420;2024-01-30T00:30:06;13.82;;;7.97;;
72060;SDS011;59925;52.136;5.420;2024-01-30T00:32:33;17.38;;;8.38;;
72060;SDS011;59925;52.136;5.420;2024-01-30T00:35:00;14.57;;;8.27;;
72060;SDS011;59925;52.136;5.420;2024-01-30T00:37:26;13.80;;;8.35;;
72060;SDS011;59925;52.136;5.420;2024-01-30T00:39:53;14.35;;;8.43;;
72060;SDS011;59925;52.136;5.420;2024-01-30T00:42:20;17.13;;;9.07;;
72060;SDS011;59925;52.136;5.420;2024-01-30T00:44:47;13.93;;;8.02;;
72060;SDS011;59925;52.136;5.420;2024-01-30T00:47:13;14.23;;;8.43;;
72060;SDS011;59925;52.136;5.420;2024-01-30T00:49:40;13.15;;;7.40;;
72060;SDS011;59925;52.136;5.420;2024-01-30T00:52:07;13.88;;;8.00;;
72060;SDS011;59925;52.136;5.420;2024-01-30T00:54:33;15.90;;;8.75;;
72060;SDS011;59925;52.136;5.420;2024-01-30T00:57:00;14.43;;;8.13;;
72060;SDS011;59925;52.136;5.420;2024-01-30T00:59:26;16.20;;;8.60;;
72060;SDS011;59925;52.136;5.420;2024-01-30T01:01:53;16.67;;;8.68;;
72060;SDS011;59925;52.136;5.420;2024-01-30T01:04:19;13.60;;;7.80;;
72060;SDS011;59925;52.136;5.420;2024-01-30T01:06:47;14.43;;;7.85;;
72060;SDS011;59925;52.136;5.420;2024-01-30T01:09:14;15.13;;;8.38;;
72060;SDS011;59925;52.136;5.420;2024-01-30T01:11:40;16.50;;;8.07;;
72060;SDS011;59925;52.136;5.420;2024-01-30T01:14:07;14.98;;;8.18;;
72060;SDS011;59925;52.136;5.420;2024-01-30T01:16:33;15.38;;;8.57;;
72060;SDS011;59925;52.136;5.420;2024-01-30T01:19:00;13.55;;;7.80;;
72060;SDS011;59925;52.136;5.420;2024-01-30T01:21:27;16.63;;;8.65;;
72060;SDS011;59925;52.136;5.420;2024-01-30T01:23:54;13.90;;;7.60;;
72060;SDS011;59925;52.136;5.420;2024-01-30T01:26:20;13.00;;;8.10;;
72060;SDS011;59925;52.136;5.420;2024-01-30T01:28:48;14.07;;;7.32;;
72060;SDS011;59925;52.136;5.420;2024-01-30T01:31:14;12.80;;;7.57;;
72060;SDS011;59925;52.136;5.420;2024-01-30T01:33:41;12.77;;;7.30;;
72060;SDS011;59925;52.136;5.420;2024-01-30T01:36:07;13.33;;;7.53;;
72060;SDS011;59925;52.136;5.420;2024-01-30T01:38:34;13.13;;;7.22;;
72060;SDS011;59925;52.136;5.420;2024-01-30T01:41:00;13.25;;;7.63;;
72060;SDS011;59925;52.136;5.420;2024-01-30T01:43:27;13.63;;;7.47;;
72060;SDS011;59925;52.136;5.420;2024-01-30T01:45:53;14.80;;;7.65;;
72060;SDS011;59925;52.136;5.420;2024-01-30T01:48:20;14.67;;;6.97;;
72060;SDS011;59925;52.136;5.420;2024-01-30T01:50:47;13.30;;;7.25;;
72060;SDS011;59925;52.136;5.420;2024-01-30T01:53:14;13.43;;;7.07;;
72060;SDS011;59925;52.136;5.420;2024-01-30T01:55:42;13.27;;;6.97;;
72060;SDS011;59925;52.136;5.420;2024-01-30T01:58:09;12.43;;;7.18;;
72060;SDS011;59925;52.136;5.420;2024-01-30T02:00:39;12.03;;;6.70;;
72060;SDS011;59925;52.136;5.420;2024-01-30T02:03:09;14.15;;;6.85;;
72060;SDS011;59925;52.136;5.420;2024-01-30T02:05:37;12.60;;;6.47;;
72060;SDS011;59925;52.136;5.420;2024-01-30T02:08:05;12.05;;;6.85;;
72060;SDS011;59925;52.136;5.420;2024-01-30T02:10:33;10.23;;;6.40;;
72060;SDS011;59925;52.136;5.420;2024-01-30T02:13:00;12.90;;;7.23;;
72060;SDS011;59925;52.136;5.420;2024-01-30T02:15:27;13.15;;;7.10;;
72060;SDS011;59925;52.136;5.420;2024-01-30T02:17:53;13.38;;;6.65;;
72060;SDS011;59925;52.136;5.420;2024-01-30T02:20:20;14.45;;;6.72;;
72060;SDS011;59925;52.136;5.420;2024-01-30T02:22:48;11.05;;;6.68;;
72060;SDS011;59925;52.136;5.420;2024-01-30T02:25:15;13.93;;;7.10;;
72060;SDS011;59925;52.136;5.420;2024-01-30T02:27:41;14.90;;;7.03;;
72060;SDS011;59925;52.136;5.420;2024-01-30T02:30:08;12.88;;;6.78;;
72060;SDS011;59925;52.136;5.420;2024-01-30T02:32:35;13.02;;;6.90;;
72060;SDS011;59925;52.136;5.420;2024-01-30T02:35:01;13.30;;;7.13;;
72060;SDS011;59925;52.136;5.420;2024-01-30T02:37:28;10.10;;;6.10;;
72060;SDS011;59925;52.136;5.420;2024-01-30T02:39:55;11.50;;;6.65;;
72060;SDS011;59925;52.136;5.420;2024-01-30T02:42:21;10.65;;;6.45;;
72060;SDS011;59925;52.136;5.420;2024-01-30T02:44:48;11.98;;;6.35;;
72060;SDS011;59925;52.136;5.420;2024-01-30T02:47:14;13.30;;;6.93;;
72060;SDS011;59925;52.136;5.420;2024-01-30T02:49:41;12.83;;;6.60;;
72060;SDS011;59925;52.136;5.420;2024-01-30T02:52:07;13.32;;;7.00;;
72060;SDS011;59925;52.136;5.420;2024-01-30T02:54:34;12.65;;;6.75;;
72060;SDS011;59925;52.136;5.420;2024-01-30T02:57:00;13.23;;;7.05;;
72060;SDS011;59925;52.136;5.420;2024-01-30T02:59:27;12.40;;;7.10;;
72060;SDS011;59925;52.136;5.420;2024-01-30T03:01:54;14.97;;;8.50;;
72060;SDS011;59925;52.136;5.420;2024-01-30T03:04:20;13.50;;;7.60;;
72060;SDS011;59925;52.136;5.420;2024-01-30T03:06:47;15.65;;;8.55;;
72060;SDS011;59925;52.136;5.420;2024-01-30T03:09:16;13.65;;;8.05;;
72060;SDS011;59925;52.136;5.420;2024-01-30T03:11:43;13.82;;;8.40;;
72060;SDS011;59925;52.136;5.420;2024-01-30T03:14:10;13.37;;;8.27;;
72060;SDS011;59925;52.136;5.420;2024-01-30T03:16:37;15.80;;;8.60;;
72060;SDS011;59925;52.136;5.420;2024-01-30T03:19:05;16.05;;;9.07;;
72060;SDS011;59925;52.136;5.420;2024-01-30T03:21:34;17.92;;;9.90;;
72060;SDS011;59925;52.136;5.420;2024-01-30T03:24:01;16.30;;;9.15;;
72060;SDS011;59925;52.136;5.420;2024-01-30T03:26:27;16.30;;;9.33;;
72060;SDS011;59925;52.136;5.420;2024-01-30T03:28:54;17.67;;;9.40;;
72060;SDS011;59925;52.136;5.420;2024-01-30T03:31:20;16.38;;;9.43;;
72060;SDS011;59925;52.136;5.420;2024-01-30T03:33:47;18.48;;;10.27;;
72060;SDS011;59925;52.136;5.420;2024-01-30T03:36:15;14.90;;;8.65;;
72060;SDS011;59925;52.136;5.420;2024-01-30T03:38:41;13.57;;;8.20;;
72060;SDS011;59925;52.136;5.420;2024-01-30T03:41:08;16.65;;;8.07;;
72060;SDS011;59925;52.136;5.420;2024-01-30T03:43:36;15.27;;;8.07;;
72060;SDS011;59925;52.136;5.420;2024-01-30T03:46:03;15.90;;;7.22;;
72060;SDS011;59925;52.136;5.420;2024-01-30T03:48:30;12.07;;;7.07;;
72060;SDS011;59925;52.136;5.420;2024-01-30T03:50:57;13.03;;;7.40;;
72060;SDS011;59925;52.136;5.420;2024-01-30T03:53:23;13.45;;;7.43;;
72060;SDS011;59925;52.136;5.420;2024-01-30T03:55:50;14.82;;;6.90;;
72060;SDS011;59925;52.136;5.420;2024-01-30T03:58:17;10.85;;;6.70;;
72060;SDS011;59925;52.136;5.420;2024-01-30T04:00:43;12.20;;;6.22;;
72060;SDS011;59925;52.136;5.420;2024-01-30T04:03:11;13.27;;;6.83;;
72060;SDS011;59925;52.136;5.420;2024-01-30T04:05:37;12.02;;;6.25;;
72060;SDS011;59925;52.136;5.420;2024-01-30T04:08:04;9.50;;;6.32;;
72060;SDS011;59925;52.136;5.420;2024-01-30T04:10:31;13.23;;;7.00;;
72060;SDS011;59925;52.136;5.420;2024-01-30T04:12:57;9.40;;;6.05;;
72060;SDS011;59925;52.136;5.420;2024-01-30T04:15:24;11.57;;;6.13;;
72060;SDS011;59925;52.136;5.420;2024-01-30T04:17:51;9.70;;;5.60;;
72060;SDS011;59925;52.136;5.420;2024-01-30T04:20:18;10.35;;;5.40;;
72060;SDS011;59925;52.136;5.420;2024-01-30T04:22:44;10.77;;;6.35;;
72060;SDS011;59925;52.136;5.420;2024-01-30T04:25:12;11.13;;;5.85;;
72060;SDS011;59925;52.136;5.420;2024-01-30T04:27:39;8.67;;;4.83;;
72060;SDS011;59925;52.136;5.420;2024-01-30T04:30:06;10.95;;;5.80;;
72060;SDS011;59925;52.136;5.420;2024-01-30T04:32:33;11.77;;;5.28;;
72060;SDS011;59925;52.136;5.420;2024-01-30T04:35:00;10.90;;;5.53;;
72060;SDS011;59925;52.136;5.420;2024-01-30T04:37:26;9.35;;;5.45;;
72060;SDS011;59925;52.136;5.420;2024-01-30T04:39:53;8.53;;;5.27;;
72060;SDS011;59925;52.136;5.420;2024-01-30T04:42:20;12.75;;;6.28;;
72060;SDS011;59925;52.136;5.420;2024-01-30T04:44:47;10.13;;;5.60;;
72060;SDS011;59925;52.136;5.420;2024-01-30T04:47:14;10.07;;;5.30;;
72060;SDS011;59925;52.136;5.420;2024-01-30T04:49:40;11.73;;;5.32;;
72060;SDS011;59925;52.136;5.420;2024-01-30T04:52:07;10.97;;;5.17;;
72060;SDS011;59925;52.136;5.420;2024-01-30T04:54:34;10.07;;;5.90;;
72060;SDS011;59925;52.136;5.420;2024-01-30T04:57:02;9.73;;;4.80;;
72060;SDS011;59925;52.136;5.420;2024-01-30T04:59:29;8.90;;;5.60;;
72060;SDS011;59925;52.136;5.420;2024-01-30T05:01:55;7.88;;;5.20;;
72060;SDS011;59925;52.136;5.420;2024-01-30T05:04:22;10.97;;;5.47;;
72060;SDS011;59925;52.136;5.420;2024-01-30T05:06:49;12.50;;;5.80;;
72060;SDS011;59925;52.136;5.420;2024-01-30T05:09:15;10.05;;;5.72;;
72060;SDS011;59925;52.136;5.420;2024-01-30T05:11:42;10.73;;;5.82;;
72060;SDS011;59925;52.136;5.420;2024-01-30T05:14:08;11.45;;;5.40;;
72060;SDS011;59925;52.136;5.420;2024-01-30T05:16:35;8.83;;;5.53;;
72060;SDS011;59925;52.136;5.420;2024-01-30T05:19:02;11.35;;;5.80;;
72060;SDS011;59925;52.136;5.420;2024-01-30T05:21:29;12.25;;;5.53;;
72060;SDS011;59925;52.136;5.420;2024-01-30T05:23:55;9.32;;;5.63;;
72060;SDS011;59925;52.136;5.420;2024-01-30T05:26:22;10.18;;;5.60;;
72060;SDS011;59925;52.136;5.420;2024-01-30T05:28:49;10.07;;;5.70;;
72060;SDS011;59925;52.136;5.420;2024-01-30T05:31:16;8.38;;;4.70;;
72060;SDS011;59925;52.136;5.420;2024-01-30T05:33:42;10.15;;;5.88;;
72060;SDS011;59925;52.136;5.420;2024-01-30T05:36:11;11.30;;;6.13;;
72060;SDS011;59925;52.136;5.420;2024-01-30T05:38:39;12.10;;;5.03;;
72060;SDS011;59925;52.136;5.420;2024-01-30T05:41:06;8.30;;;5.13;;
72060;SDS011;59925;52.136;5.420;2024-01-30T05:43:32;9.27;;;5.45;;
72060;SDS011;59925;52.136;5.420;2024-01-30T05:45:59;9.98;;;5.60;;
72060;SDS011;59925;52.136;5.420;2024-01-30T05:48:26;11.23;;;5.35;;
72060;SDS011;59925;52.136;5.420;2024-01-30T05:50:52;12.55;;;5.47;;
72060;SDS011;59925;52.136;5.420;2024-01-30T05:53:19;8.03;;;5.07;;
72060;SDS011;59925;52.136;5.420;2024-01-30T05:55:46;10.05;;;5.60;;
72060;SDS011;59925;52.136;5.420;2024-01-30T05:58:12;9.43;;;5.50;;
72060;SDS011;59925;52.136;5.420;2024-01-30T06:00:39;9.68;;;6.20;;
72060;SDS011;59925;52.136;5.420;2024-01-30T06:03:05;10.60;;;5.78;;
72060;SDS011;59925;52.136;5.420;2024-01-30T06:05:32;8.87;;;5.50;;
72060;SDS011;59925;52.136;5.420;2024-01-30T06:07:58;8.95;;;5.05;;
72060;SDS011;59925;52.136;5.420;2024-01-30T06:10:25;10.65;;;5.85;;
72060;SDS011;59925;52.136;5.420;2024-01-30T06:12:52;12.00;;;5.97;;
72060;SDS011;59925;52.136;5.420;2024-01-30T06:15:18;9.50;;;5.47;;
72060;SDS011;59925;52.136;5.420;2024-01-30T06:17:45;10.27;;;5.93;;
72060;SDS011;59925;52.136;5.420;2024-01-30T06:20:11;10.05;;;5.40;;
72060;SDS011;59925;52.136;5.420;2024-01-30T06:22:38;10.10;;;5.80;;
72060;SDS011;59925;52.136;5.420;2024-01-30T06:25:05;11.38;;;5.80;;
72060;SDS011;59925;52.136;5.420;2024-01-30T06:27:31;9.23;;;5.18;;
72060;SDS011;59925;52.136;5.420;2024-01-30T06:29:58;8.30;;;5.27;;
72060;SDS011;59925;52.136;5.420;2024-01-30T06:32:24;8.50;;;5.30;;
72060;SDS011;59925;52.136;5.420;2024-01-30T06:34:51;8.20;;;5.35;;
72060;SDS011;59925;52.136;5.420;2024-01-30T06:37:18;9.85;;;5.35;;
72060;SDS011;59925;52.136;5.420;2024-01-30T06:39:44;12.50;;;6.13;;
72060;SDS011;59925;52.136;5.420;2024-01-30T06:42:11;10.07;;;5.00;;
72060;SDS011;59925;52.136;5.420;2024-01-30T06:44:38;9.00;;;5.35;;
72060;SDS011;59925;52.136;5.420;2024-01-30T06:47:04;10.55;;;5.40;;
72060;SDS011;59925;52.136;5.420;2024-01-30T06:49:31;11.85;;;5.50;;
72060;SDS011;59925;52.136;5.420;2024-01-30T06:51:58;8.85;;;5.32;;
72060;SDS011;59925;52.136;5.420;2024-01-30T06:54:24;10.57;;;5.80;;
72060;SDS011;59925;52.136;5.420;2024-01-30T06:56:51;12.23;;;6.00;;
72060;SDS011;59925;52.136;5.420;2024-01-30T06:59:17;11.77;;;5.90;;
72060;SDS011;59925;52.136;5.420;2024-01-30T07:01:44;11.63;;;5.50;;
72060;SDS011;59925;52.136;5.420;2024-01-30T07:04:11;9.40;;;5.15;;
72060;SDS011;59925;52.136;5.420;2024-01-30T07:06:37;10.67;;;5.07;;
72060;SDS011;59925;52.136;5.420;2024-01-30T07:09:04;10.43;;;5.60;;
72060;SDS011;59925;52.136;5.420;2024-01-30T07:11:31;11.13;;;5.60;;
72060;SDS011;59925;52.136;5.420;2024-01-30T07:13:58;8.35;;;5.68;;
72060;SDS011;59925;52.136;5.420;2024-01-30T07:16:25;10.85;;;5.57;;
72060;SDS011;59925;52.136;5.420;2024-01-30T07:18:51;10.53;;;5.67;;
72060;SDS011;59925;52.136;5.420;2024-01-30T07:21:18;10.93;;;5.40;;
72060;SDS011;59925;52.136;5.420;2024-01-30T07:23:48;9.27;;;5.03;;
72060;SDS011;59925;52.136;5.420;2024-01-30T07:26:14;8.35;;;5.25;;
72060;SDS011;59925;52.136;5.420;2024-01-30T07:28:41;12.25;;;5.45;;
72060;SDS011;59925;52.136;5.420;2024-01-30T07:31:07;10.23;;;5.27;;
72060;SDS011;59925;52.136;5.420;2024-01-30T07:33:34;7.20;;;4.82;;
72060;SDS011;59925;52.136;5.420;2024-01-30T07:36:00;10.63;;;5.70;;
72060;SDS011;59925;52.136;5.420;2024-01-30T07:38:27;9.55;;;5.40;;
72060;SDS011;59925;52.136;5.420;2024-01-30T07:40:53;9.07;;;5.43;;
72060;SDS011;59925;52.136;5.420;2024-01-30T07:43:20;10.17;;;5.40;;
72060;SDS011;59925;52.136;5.420;2024-01-30T07:45:46;10.68;;;5.15;;
72060;SDS011;59925;52.136;5.420;2024-01-30T07:48:13;8.85;;;5.68;;
72060;SDS011;59925;52.136;5.420;2024-01-30T07:50:40;9.75;;;5.55;;
72060;SDS011;59925;52.136;5.420;2024-01-30T07:53:07;10.10;;;5.43;;
72060;SDS011;59925;52.136;5.420;2024-01-30T07:55:34;8.83;;;5.47;;
72060;SDS011;59925;52.136;5.420;2024-01-30T07:58:00;8.43;;;5.32;;
72060;SDS011;59925;52.136;5.420;2024-01-30T08:00:27;11.73;;;5.57;;
72060;SDS011;59925;52.136;5.420;2024-01-30T08:02:55;8.60;;;5.40;;
72060;SDS011;59925;52.136;5.420;2024-01-30T08:05:22;8.80;;;4.82;;
72060;SDS011;59925;52.136;5.420;2024-01-30T08:07:50;8.27;;;5.23;;
72060;SDS011;59925;52.136;5.420;2024-01-30T08:10:17;9.45;;;4.97;;
72060;SDS011;59925;52.136;5.420;2024-01-30T08:12:45;11.50;;;5.03;;
72060;SDS011;59925;52.136;5.420;2024-01-30T08:15:12;9.32;;;5.30;;
72060;SDS011;59925;52.136;5.420;2024-01-30T08:17:39;11.50;;;5.28;;
72060;SDS011;59925;52.136;5.420;2024-01-30T08:20:06;9.57;;;5.30;;
72060;SDS011;59925;52.136;5.420;2024-01-30T08:22:34;9.40;;;5.47;;
72060;SDS011;59925;52.136;5.420;2024-01-30T08:25:01;11.80;;;5.90;;
72060;SDS011;59925;52.136;5.420;2024-01-30T08:27:28;12.98;;;5.68;;
72060;SDS011;59925;52.136;5.420;2024-01-30T08:29:54;11.30;;;5.22;;
72060;SDS011;59925;52.136;5.420;2024-01-30T08:32:21;9.00;;;5.53;;
72060;SDS011;59925;52.136;5.420;2024-01-30T08:34:47;9.35;;;4.90;;
72060;SDS011;59925;52.136;5.420;2024-01-30T08:37:14;11.52;;;5.22;;
72060;SDS011;59925;52.136;5.420;2024-01-30T08:39:43;12.00;;;5.30;;
72060;SDS011;59925;52.136;5.420;2024-01-30T08:42:10;11.32;;;5.57;;
72060;SDS011;59925;52.136;5.420;2024-01-30T08:44:37;10.90;;;5.27;;
72060;SDS011;59925;52.136;5.420;2024-01-30T08:47:05;14.10;;;4.90;;
72060;SDS011;59925;52.136;5.420;2024-01-30T08:49:32;9.02;;;5.05;;
72060;SDS011;59925;52.136;5.420;2024-01-30T08:51:58;9.68;;;5.00;;
72060;SDS011;59925;52.136;5.420;2024-01-30T08:54:25;11.57;;;5.43;;
72060;SDS011;59925;52.136;5.420;2024-01-30T08:56:51;11.30;;;5.20;;
72060;SDS011;59925;52.136;5.420;2024-01-30T08:59:19;10.68;;;5.43;;
72060;SDS011;59925;52.136;5.420;2024-01-30T09:01:45;11.65;;;5.28;;
72060;SDS011;59925;52.136;5.420;2024-01-30T09:04:28;9.60;;;5.38;;
72060;SDS011;59925;52.136;5.420;2024-01-30T09:06:55;8.93;;;5.35;;
72060;SDS011;59925;52.136;5.420;2024-01-30T09:09:22;10.90;;;4.80;;
72060;SDS011;59925;52.136;5.420;2024-01-30T09:11:48;15.65;;;5.65;;
72060;SDS011;59925;52.136;5.420;2024-01-30T09:14:15;11.52;;;5.15;;
72060;SDS011;59925;52.136;5.420;2024-01-30T09:16:42;13.23;;;5.00;;
72060;SDS011;59925;52.136;5.420;2024-01-30T09:19:08;11.38;;;5.43;;
72060;SDS011;59925;52.136;5.420;2024-01-30T09:21:35;11.77;;;5.47;;
72060;SDS011;59925;52.136;5.420;2024-01-30T09:24:02;10.00;;;5.05;;
72060;SDS011;59925;52.136;5.420;2024-01-30T09:26:31;11.23;;;5.30;;
72060;SDS011;59925;52.136;5.420;2024-01-30T09:28:58;11.82;;;5.45;;
72060;SDS011;59925;52.136;5.420;2024-01-30T09:31:24;10.98;;;4.50;;
72060;SDS011;59925;52.136;5.420;2024-01-30T09:33:51;10.07;;;5.07;;
72060;SDS011;59925;52.136;5.420;2024-01-30T09:36:20;10.70;;;5.13;;
72060;SDS011;59925;52.136;5.420;2024-01-30T09:38:47;11.02;;;5.85;;
72060;SDS011;59925;52.136;5.420;2024-01-30T09:41:16;10.88;;;5.20;;
72060;SDS011;59925;52.136;5.420;2024-01-30T09:43:47;9.57;;;5.47;;
72060;SDS011;59925;52.136;5.420;2024-01-30T09:46:17;9.63;;;5.80;;
72060;SDS011;59925;52.136;5.420;2024-01-30T09:48:47;9.63;;;5.55;;
72060;SDS011;59925;52.136;5.420;2024-01-30T09:51:14;8.38;;;4.70;;
72060;SDS011;59925;52.136;5.420;2024-01-30T09:53:42;10.13;;;4.93;;
72060;SDS011;59925;52.136;5.420;2024-01-30T09:56:09;7.93;;;5.10;;
72060;SDS011;59925;52.136;5.420;2024-01-30T09:58:37;10.83;;;5.23;;
72060;SDS011;59925;52.136;5.420;2024-01-30T10:01:06;11.77;;;4.75;;
72060;SDS011;59925;52.136;5.420;2024-01-30T10:03:33;10.65;;;4.88;;
72060;SDS011;59925;52.136;5.420;2024-01-30T10:06:00;14.48;;;5.18;;
72060;SDS011;59925;52.136;5.420;2024-01-30T10:08:27;12.05;;;5.53;;
72060;SDS011;59925;52.136;5.420;2024-01-30T10:10:56;10.80;;;5.40;;
72060;SDS011;59925;52.136;5.420;2024-01-30T10:13:24;9.18;;;4.90;;
72060;SDS011;59925;52.136;5.420;2024-01-30T10:15:52;9.70;;;5.28;;
72060;SDS011;59925;52.136;5.420;2024-01-30T10:18:19;9.90;;;4.90;;
72060;SDS011;59925;52.136;5.420;2024-01-30T10:20:46;11.55;;;5.35;;
72060;SDS011;59925;52.136;5.420;2024-01-30T10:23:12;10.07;;;5.40;;
72060;SDS011;59925;52.136;5.420;2024-01-30T10:25:39;11.20;;;5.45;;
72060;SDS011;59925;52.136;5.420;2024-01-30T10:28:06;11.40;;;5.00;;
72060;SDS011;59925;52.136;5.420;2024-01-30T10:30:32;8.90;;;5.15;;
72060;SDS011;59925;52.136;5.420;2024-01-30T10:32:59;12.32;;;5.55;;
72060;SDS011;59925;52.136;5.420;2024-01-30T10:35:25;11.47;;;4.87;;
72060;SDS011;59925;52.136;5.420;2024-01-30T10:37:52;10.45;;;5.20;;
72060;SDS011;59925;52.136;5.420;2024-01-30T10:40:23;10.23;;;5.30;;
72060;SDS011;59925;52.136;5.420;2024-01-30T10:42:54;10.43;;;5.32;;
72060;SDS011;59925;52.136;5.420;2024-01-30T10:45:22;10.70;;;4.75;;
72060;SDS011;59925;52.136;5.420;2024-01-30T10:47:54;10.50;;;4.93;;
72060;SDS011;59925;52.136;5.420;2024-01-30T10:50:24;8.27;;;4.68;;
72060;SDS011;59925;52.136;5.420;2024-01-30T10:52:52;10.13;;;4.63;;
72060;SDS011;59925;52.136;5.420;2024-01-30T10:55:21;7.97;;;4.53;;
72060;SDS011;59925;52.136;5.420;2024-01-30T10:57:48;10.00;;;5.60;;
72060;SDS011;59925;52.136;5.420;2024-01-30T11:00:15;8.90;;;4.73;;
72060;SDS011;59925;52.136;5.420;2024-01-30T11:02:43;8.48;;;4.38;;
72060;SDS011;59925;52.136;5.420;2024-01-30T11:05:12;7.43;;;4.07;;
72060;SDS011;59925;52.136;5.420;2024-01-30T11:07:39;11.00;;;4.80;;
72060;SDS011;59925;52.136;5.420;2024-01-30T11:10:09;7.70;;;3.75;;
72060;SDS011;59925;52.136;5.420;2024-01-30T11:12:41;8.63;;;4.70;;
72060;SDS011;59925;52.136;5.420;2024-01-30T11:15:11;7.15;;;3.50;;
72060;SDS011;59925;52.136;5.420;2024-01-30T11:17:43;5.40;;;3.85;;
72060;SDS011;59925;52.136;5.420;2024-01-30T11:20:20;10.55;;;4.78;;
72060;SDS011;59925;52.136;5.420;2024-01-30T11:22:49;10.43;;;4.72;;
72060;SDS011;59925;52.136;5.420;2024-01-30T11:25:17;9.80;;;4.20;;
72060;SDS011;59925;52.136;5.420;2024-01-30T11:27:46;8.10;;;4.30;;
72060;SDS011;59925;52.136;5.420;2024-01-30T11:33:06;6.93;;;4.05;;
72060;SDS011;59925;52.136;5.420;2024-01-30T11:38:08;4.63;;;2.53;;
72060;SDS011;59925;52.136;5.420;2024-01-30T11:40:37;5.75;;;2.30;;
72060;SDS011;59925;52.136;5.420;2024-01-30T11:43:05;5.90;;;2.08;;
72060;SDS011;59925;52.136;5.420;2024-01-30T11:45:33;4.72;;;1.55;;
72060;SDS011;59925;52.136;5.420;2024-01-30T11:48:02;4.03;;;1.50;;
72060;SDS011;59925;52.136;5.420;2024-01-30T11:50:33;3.53;;;1.27;;
72060;SDS011;59925;52.136;5.420;2024-01-30T11:53:01;4.68;;;1.48;;
72060;SDS011;59925;52.136;5.420;2024-01-30T11:55:31;3.13;;;0.80;;
72060;SDS011;59925;52.136;5.420;2024-01-30T11:58:01;4.00;;;0.85;;
72060;SDS011;59925;52.136;5.420;2024-01-30T12:00:28;5.13;;;1.05;;
72060;SDS011;59925;52.136;5.420;2024-01-30T12:02:57;5.27;;;0.80;;
72060;SDS011;59925;52.136;5.420;2024-01-30T12:05:25;1.95;;;0.57;;
72060;SDS011;59925;52.136;5.420;2024-01-30T12:07:51;3.35;;;0.50;;
72060;SDS011;59925;52.136;5.420;2024-01-30T12:10:19;5.32;;;0.70;;
72060;SDS011;59925;52.136;5.420;2024-01-30T12:12:47;3.47;;;0.90;;
72060;SDS011;59925;52.136;5.420;2024-01-30T12:15:16;2.50;;;0.53;;
72060;SDS011;59925;52.136;5.420;2024-01-30T12:17:43;2.90;;;0.52;;
72060;SDS011;59925;52.136;5.420;2024-01-30T12:20:14;3.55;;;0.60;;
72060;SDS011;59925;52.136;5.420;2024-01-30T12:22:43;2.47;;;0.60;;
72060;SDS011;59925;52.136;5.420;2024-01-30T12:25:12;5.43;;;0.85;;
72060;SDS011;59925;52.136;5.420;2024-01-30T12:27:42;4.27;;;1.23;;
72060;SDS011;59925;52.136;5.420;2024-01-30T12:30:10;4.88;;;1.13;;
72060;SDS011;59925;52.136;5.420;2024-01-30T12:32:40;2.78;;;1.77;;
72060;SDS011;59925;52.136;5.420;2024-01-30T12:35:12;3.90;;;1.60;;
72060;SDS011;59925;52.136;5.420;2024-01-30T12:37:39;5.90;;;1.83;;
72060;SDS011;59925;52.136;5.420;2024-01-30T12:40:07;5.60;;;1.87;;
72060;SDS011;59925;52.136;5.420;2024-01-30T12:42:34;5.78;;;1.45;;
72060;SDS011;59925;52.136;5.420;2024-01-30T12:45:02;6.72;;;1.70;;
72060;SDS011;59925;52.136;5.420;2024-01-30T12:47:30;4.50;;;1.35;;
72060;SDS011;59925;52.136;5.420;2024-01-30T12:49:57;8.52;;;1.67;;
72060;SDS011;59925;52.136;5.420;2024-01-30T12:52:24;5.57;;;1.50;;
72060;SDS011;59925;52.136;5.420;2024-01-30T12:54:51;5.72;;;1.10;;
72060;SDS011;59925;52.136;5.420;2024-01-30T12:57:19;3.65;;;1.23;;
72060;SDS011;59925;52.136;5.420;2024-01-30T12:59:46;3.40;;;1.30;;
72060;SDS011;59925;52.136;5.420;2024-01-30T13:02:13;3.00;;;1.15;;
72060;SDS011;59925;52.136;5.420;2024-01-30T13:04:40;7.53;;;1.20;;
72060;SDS011;59925;52.136;5.420;2024-01-30T13:07:09;6.03;;;1.60;;
72060;SDS011;59925;52.136;5.420;2024-01-30T13:09:35;3.70;;;1.10;;
72060;SDS011;59925;52.136;5.420;2024-01-30T13:12:02;5.13;;;1.00;;
72060;SDS011;59925;52.136;5.420;2024-01-30T13:14:29;3.10;;;1.10;;
72060;SDS011;59925;52.136;5.420;2024-01-30T13:16:55;4.90;;;1.20;;
72060;SDS011;59925;52.136;5.420;2024-01-30T13:19:22;2.95;;;0.90;;
72060;SDS011;59925;52.136;5.420;2024-01-30T13:21:48;2.67;;;0.90;;
72060;SDS011;59925;52.136;5.420;2024-01-30T13:24:15;1.98;;;0.50;;
72060;SDS011;59925;52.136;5.420;2024-01-30T13:26:42;3.13;;;0.50;;
72060;SDS011;59925;52.136;5.420;2024-01-30T13:29:09;1.57;;;1.07;;
72060;SDS011;59925;52.136;5.420;2024-01-30T13:31:35;3.28;;;0.93;;
72060;SDS011;59925;52.136;5.420;2024-01-30T13:34:02;1.98;;;0.45;;
72060;SDS011;59925;52.136;5.420;2024-01-30T13:36:33;2.97;;;0.30;;
72060;SDS011;59925;52.136;5.420;2024-01-30T13:39:00;2.22;;;0.50;;
72060;SDS011;59925;52.136;5.420;2024-01-30T13:41:27;1.63;;;0.30;;
72060;SDS011;59925;52.136;5.420;2024-01-30T13:43:53;2.00;;;0.40;;
72060;SDS011;59925;52.136;5.420;2024-01-30T13:46:20;3.95;;;0.47;;
72060;SDS011;59925;52.136;5.420;2024-01-30T13:48:46;3.67;;;0.50;;
72060;SDS011;59925;52.136;5.420;2024-01-30T13:51:13;1.45;;;0.47;;
72060;SDS011;59925;52.136;5.420;2024-01-30T13:53:40;3.90;;;0.50;;
72060;SDS011;59925;52.136;5.420;2024-01-30T13:56:07;1.88;;;0.68;;
72060;SDS011;59925;52.136;5.420;2024-01-30T13:58:33;4.97;;;1.00;;
72060;SDS011;59925;52.136;5.420;2024-01-30T14:01:02;3.10;;;0.60;;
72060;SDS011;59925;52.136;5.420;2024-01-30T14:03:29;2.42;;;0.75;;
72060;SDS011;59925;52.136;5.420;2024-01-30T14:05:56;2.47;;;0.40;;
72060;SDS011;59925;52.136;5.420;2024-01-30T14:08:23;4.75;;;0.70;;
72060;SDS011;59925;52.136;5.420;2024-01-30T14:10:53;2.33;;;0.70;;
72060;SDS011;59925;52.136;5.420;2024-01-30T14:13:20;2.05;;;0.70;;
72060;SDS011;59925;52.136;5.420;2024-01-30T14:15:47;2.60;;;0.57;;
72060;SDS011;59925;52.136;5.420;2024-01-30T14:18:13;2.60;;;0.63;;
72060;SDS011;59925;52.136;5.420;2024-01-30T14:20:40;3.53;;;0.65;;
72060;SDS011;59925;52.136;5.420;2024-01-30T14:23:06;6.60;;;0.52;;
72060;SDS011;59925;52.136;5.420;2024-01-30T14:25:33;4.40;;;0.65;;
72060;SDS011;59925;52.136;5.420;2024-01-30T14:28:00;3.63;;;0.60;;
72060;SDS011;59925;52.136;5.420;2024-01-30T14:30:27;3.23;;;0.50;;
72060;SDS011;59925;52.136;5.420;2024-01-30T14:32:54;2.08;;;0.30;;
72060;SDS011;59925;52.136;5.420;2024-01-30T14:35:22;2.20;;;0.40;;
72060;SDS011;59925;52.136;5.420;2024-01-30T14:37:48;4.68;;;0.60;;
72060;SDS011;59925;52.136;5.420;2024-01-30T14:40:15;4.57;;;0.57;;
72060;SDS011;59925;52.136;5.420;2024-01-30T14:42:42;2.50;;;0.47;;
72060;SDS011;59925;52.136;5.420;2024-01-30T14:45:08;2.90;;;0.50;;